Time;durP1;ratioP1;P1;durP2;ratioP2;P2;SDS_P1;SDS_P2;PMS_P1;PMS_P2;Temp;Humidity;BMP_temperature;BMP_pressure;BME280_temperature;BME280_humidity;BME280_pressure;Samples;Min_cycle;Max_cycle;Signal;HPM_P1;HPM_P2
2021/10/08 00:01:22;;;;;;;1.84;1.74;;;;;;;19.88;68.83;101619.59;;;;-50
2021/10/08 00:04:22;;;;;;;1.90;1.75;;;;;;;19.86;68.88;101621.05;;;;-61
2021/10/08 00:07:22;;;;;;;1.96;1.80;;;;;;;19.85;68.85;101622.75;;;;-61
2021/10/08 00:10:22;;;;;;;2.09;1.89;;;;;;;19.86;68.86;101622.84;;;;-61
2021/10/08 00:13:22;;;;;;;2.45;1.75;;;;;;;19.85;68.85;101621.70;;;;-61
2021/10/08 00:16:22;;;;;;;1.70;1.60;;;;;;;19.85;68.79;101621.94;;;;-61
2021/10/08 00:19:22;;;;;;;2.08;1.87;;;;;;;19.84;68.83;101621.28;;;;-61
2021/10/08 00:22:22;;;;;;;1.87;1.77;;;;;;;19.83;68.84;101620.02;;;;-61
2021/10/08 00:25:22;;;;;;;1.90;1.80;;;;;;;19.83;68.83;101617.73;;;;-56
2021/10/08 00:28:22;;;;;;;2.21;1.89;;;;;;;19.83;68.81;101621.89;;;;-56
2021/10/08 00:31:22;;;;;;;2.00;1.88;;;;;;;19.81;68.85;101620.14;;;;-56
2021/10/08 00:34:22;;;;;;;1.81;1.71;;;;;;;19.82;68.81;101618.55;;;;-55
2021/10/08 00:37:22;;;;;;;1.95;1.79;;;;;;;19.81;68.80;101619.65;;;;-54
2021/10/08 00:40:22;;;;;;;2.04;1.85;;;;;;;19.82;68.79;101618.95;;;;-55
2021/10/08 00:43:22;;;;;;;1.93;1.71;;;;;;;19.80;68.81;101614.67;;;;-55
2021/10/08 00:46:22;;;;;;;1.88;1.78;;;;;;;19.79;68.79;101613.42;;;;-54
2021/10/08 00:49:22;;;;;;;1.90;1.80;;;;;;;19.79;68.79;101612.20;;;;-55
2021/10/08 00:52:22;;;;;;;1.99;1.69;;;;;;;19.80;68.74;101607.11;;;;-56
2021/10/08 00:55:22;;;;;;;1.78;1.68;;;;;;;19.79;68.76;101604.97;;;;-56
2021/10/08 00:58:22;;;;;;;2.10;1.90;;;;;;;19.79;68.75;101603.81;;;;-56
2021/10/08 01:01:22;;;;;;;2.22;1.80;;;;;;;19.78;68.76;101606.98;;;;-56
2021/10/08 01:04:22;;;;;;;1.74;1.63;;;;;;;19.77;68.74;101605.64;;;;-56
2021/10/08 01:07:22;;;;;;;2.05;1.85;;;;;;;19.77;68.74;101600.52;;;;-55
2021/10/08 01:10:22;;;;;;;1.80;1.69;;;;;;;19.76;68.79;101603.84;;;;-56
2021/10/08 01:13:22;;;;;;;1.96;1.80;;;;;;;19.75;68.79;101598.52;;;;-56
2021/10/08 01:16:22;;;;;;;2.00;1.83;;;;;;;19.75;68.78;101596.00;;;;-56
2021/10/08 01:19:22;;;;;;;2.14;1.91;;;;;;;19.75;68.80;101596.16;;;;-56
2021/10/08 01:22:22;;;;;;;1.97;1.87;;;;;;;19.73;68.82;101594.73;;;;-56
2021/10/08 01:25:21;;;;;;;2.16;1.96;;;;;;;19.74;68.77;101595.83;;;;-54
2021/10/08 01:28:22;;;;;;;1.83;1.70;;;;;;;19.73;68.77;101595.38;;;;-56
2021/10/08 01:31:22;;;;;;;1.97;1.73;;;;;;;19.72;68.79;101594.23;;;;-55
2021/10/08 01:34:22;;;;;;;1.80;1.70;;;;;;;19.73;68.76;101599.45;;;;-54
2021/10/08 01:37:22;;;;;;;1.87;1.70;;;;;;;19.72;68.76;101592.20;;;;-56
2021/10/08 01:40:22;;;;;;;1.95;1.77;;;;;;;19.70;68.77;101596.59;;;;-51
2021/10/08 01:43:22;;;;;;;1.96;1.82;;;;;;;19.70;68.78;101590.33;;;;-52
2021/10/08 01:46:22;;;;;;;1.89;1.75;;;;;;;19.70;68.79;101585.13;;;;-61
2021/10/08 01:49:22;;;;;;;1.85;1.73;;;;;;;19.70;68.76;101591.06;;;;-61
2021/10/08 01:52:22;;;;;;;2.21;1.84;;;;;;;19.70;68.77;101595.54;;;;-61
2021/10/08 01:55:22;;;;;;;2.11;1.88;;;;;;;19.71;68.69;101593.05;;;;-61
2021/10/08 01:58:22;;;;;;;1.91;1.81;;;;;;;19.70;68.76;101598.14;;;;-61
2021/10/08 02:01:22;;;;;;;5.27;2.05;;;;;;;19.69;68.73;101601.92;;;;-61
2021/10/08 02:04:22;;;;;;;1.80;1.70;;;;;;;19.68;68.73;101605.41;;;;-60
2021/10/08 02:07:22;;;;;;;2.47;1.99;;;;;;;19.67;68.73;101600.28;;;;-60
2021/10/08 02:10:21;;;;;;;2.05;1.87;;;;;;;19.67;68.78;101597.48;;;;-61
2021/10/08 02:13:22;;;;;;;1.90;1.80;;;;;;;19.66;68.73;101591.05;;;;-60
2021/10/08 02:16:22;;;;;;;1.87;1.72;;;;;;;19.67;68.75;101594.59;;;;-50
2021/10/08 02:19:22;;;;;;;1.90;1.69;;;;;;;19.66;68.73;101592.76;;;;-50
2021/10/08 02:22:22;;;;;;;2.41;1.77;;;;;;;19.64;68.76;101588.97;;;;-50
2021/10/08 02:25:21;;;;;;;2.03;1.83;;;;;;;19.65;68.74;101585.75;;;;-50
2021/10/08 02:28:22;;;;;;;2.27;1.71;;;;;;;19.64;68.71;101584.49;;;;-50
2021/10/08 02:31:22;;;;;;;2.11;1.93;;;;;;;19.63;68.73;101585.75;;;;-50
2021/10/08 02:34:22;;;;;;;1.97;1.79;;;;;;;19.64;68.68;101587.26;;;;-50
2021/10/08 02:37:22;;;;;;;2.20;1.81;;;;;;;19.63;68.68;101590.58;;;;-50
2021/10/08 02:40:22;;;;;;;1.85;1.75;;;;;;;19.63;68.69;101594.54;;;;-50
2021/10/08 02:43:22;;;;;;;2.23;1.75;;;;;;;19.62;68.70;101601.12;;;;-50
2021/10/08 02:46:22;;;;;;;1.97;1.79;;;;;;;19.62;68.69;101605.27;;;;-50
2021/10/08 02:49:23;;;;;;;1.87;1.77;;;;;;;19.62;68.71;101604.45;;;;-50
2021/10/08 02:52:22;;;;;;;1.92;1.80;;;;;;;19.61;68.73;101605.22;;;;-50
2021/10/08 02:55:22;;;;;;;1.99;1.83;;;;;;;19.61;68.68;101605.88;;;;-50
2021/10/08 02:58:22;;;;;;;2.11;1.91;;;;;;;19.60;68.68;101605.45;;;;-50
2021/10/08 03:01:22;;;;;;;1.90;1.80;;;;;;;19.61;68.64;101604.65;;;;-50
2021/10/08 03:04:22;;;;;;;2.14;1.94;;;;;;;19.60;68.65;101604.00;;;;-50
2021/10/08 03:07:22;;;;;;;1.84;1.74;;;;;;;19.59;68.66;101603.98;;;;-50
2021/10/08 03:10:21;;;;;;;1.70;1.60;;;;;;;19.60;68.63;101604.89;;;;-50
2021/10/08 03:13:22;;;;;;;2.13;1.93;;;;;;;19.59;68.61;101597.40;;;;-50
2021/10/08 03:16:22;;;;;;;1.89;1.79;;;;;;;19.58;68.66;101599.72;;;;-50
2021/10/08 03:19:22;;;;;;;2.04;1.83;;;;;;;19.60;68.61;101607.16;;;;-61
2021/10/08 03:22:22;;;;;;;3.10;2.01;;;;;;;19.58;68.61;101604.77;;;;-50
2021/10/08 03:25:22;;;;;;;1.90;1.80;;;;;;;19.57;68.60;101603.78;;;;-50
2021/10/08 03:28:22;;;;;;;1.81;1.71;;;;;;;19.57;68.63;101602.20;;;;-50
2021/10/08 03:31:22;;;;;;;1.98;1.82;;;;;;;19.56;68.58;101597.39;;;;-56
2021/10/08 03:34:22;;;;;;;1.95;1.83;;;;;;;19.56;68.63;101608.62;;;;-54
2021/10/08 03:37:27;;;;;;;2.27;1.80;;;;;;;19.56;68.62;101609.50;;;;-54
2021/10/08 03:40:26;;;;;;;2.10;1.90;;;;;;;19.55;68.62;101615.19;;;;-56
2021/10/08 03:43:22;;;;;;;1.80;1.70;;;;;;;19.56;68.61;101608.20;;;;-56
2021/10/08 03:46:25;;;;;;;1.94;1.84;;;;;;;19.55;68.63;101607.19;;;;-55
2021/10/08 03:49:22;;;;;;;1.83;1.73;;;;;;;19.54;68.62;101608.24;;;;-55
2021/10/08 03:52:22;;;;;;;1.90;1.80;;;;;;;19.55;68.65;101604.09;;;;-50
2021/10/08 03:55:21;;;;;;;1.80;1.70;;;;;;;19.54;68.60;101610.84;;;;-50
2021/10/08 03:58:22;;;;;;;1.90;1.80;;;;;;;19.53;68.57;101608.22;;;;-50
2021/10/08 04:01:22;;;;;;;1.93;1.80;;;;;;;19.53;68.60;101610.34;;;;-50
2021/10/08 04:04:22;;;;;;;1.91;1.76;;;;;;;19.52;68.63;101609.81;;;;-50
2021/10/08 04:07:22;;;;;;;1.89;1.77;;;;;;;19.51;68.63;101612.00;;;;-51
2021/10/08 04:10:22;;;;;;;1.81;1.71;;;;;;;19.52;68.55;101616.16;;;;-50
2021/10/08 04:13:22;;;;;;;1.83;1.72;;;;;;;19.51;68.55;101629.23;;;;-50
2021/10/08 04:16:22;;;;;;;2.02;1.80;;;;;;;19.51;68.51;101627.38;;;;-60
2021/10/08 04:19:22;;;;;;;2.08;1.90;;;;;;;19.50;68.53;101632.45;;;;-61
2021/10/08 04:22:22;;;;;;;1.90;1.80;;;;;;;19.51;68.51;101632.45;;;;-61
2021/10/08 04:25:21;;;;;;;1.85;1.75;;;;;;;19.49;68.54;101626.67;;;;-60
2021/10/08 04:28:22;;;;;;;1.81;1.71;;;;;;;19.48;68.52;101623.30;;;;-61
2021/10/08 04:31:22;;;;;;;1.76;1.66;;;;;;;19.49;68.53;101621.47;;;;-61
2021/10/08 04:34:22;;;;;;;1.83;1.73;;;;;;;19.49;68.49;101621.70;;;;-61
2021/10/08 04:37:22;;;;;;;2.23;1.91;;;;;;;19.49;68.48;101618.20;;;;-61
2021/10/08 04:40:22;;;;;;;9.82;2.53;;;;;;;19.48;63.27;101612.23;;;;-61
2021/10/08 04:43:22;;;;;;;3.99;2.61;;;;;;;19.26;62.09;101621.50;;;;-61
2021/10/08 04:46:22;;;;;;;2.91;2.55;;;;;;;19.14;60.92;101622.03;;;;-55
2021/10/08 04:49:22;;;;;;;3.97;3.63;;;;;;;19.07;60.50;101623.97;;;;-56
2021/10/08 04:52:22;;;;;;;3.25;2.67;;;;;;;18.99;59.71;101624.97;;;;-56
2021/10/08 04:55:21;;;;;;;4.70;2.81;;;;;;;18.94;59.69;101620.18;;;;-56
2021/10/08 04:58:22;;;;;;;6.67;2.64;;;;;;;19.03;61.50;101623.17;;;;-54
2021/10/08 05:01:22;;;;;;;9.95;3.04;;;;;;;19.06;62.03;101623.85;;;;-54
2021/10/08 05:04:22;;;;;;;5.02;2.71;;;;;;;19.11;62.38;101625.42;;;;-54
2021/10/08 05:07:22;;;;;;;5.64;2.73;;;;;;;19.12;62.85;101627.66;;;;-51
2021/10/08 05:10:22;;;;;;;5.48;2.72;;;;;;;19.14;63.31;101623.41;;;;-49
2021/10/08 05:13:22;;;;;;;6.15;2.64;;;;;;;19.16;63.49;101623.55;;;;-51
2021/10/08 05:16:21;;;;;;;3.35;2.45;;;;;;;19.16;63.85;101625.17;;;;-60
2021/10/08 05:19:23;;;;;;;4.03;2.43;;;;;;;19.17;64.28;101622.12;;;;-60
2021/10/08 05:22:22;;;;;;;3.59;2.42;;;;;;;19.18;64.23;101620.92;;;;-51
2021/10/08 05:25:22;;;;;;;13.85;2.59;;;;;;;19.20;64.39;101617.80;;;;-49
2021/10/08 05:28:22;;;;;;;5.51;2.57;;;;;;;19.20;64.85;101614.30;;;;-55
2021/10/08 05:31:21;;;;;;;2.87;2.49;;;;;;;19.20;64.96;101616.83;;;;-51
2021/10/08 05:34:22;;;;;;;3.16;2.49;;;;;;;19.20;65.08;101618.69;;;;-60
2021/10/08 05:37:21;;;;;;;4.22;2.31;;;;;;;19.19;65.22;101625.97;;;;-61
2021/10/08 05:40:22;;;;;;;3.08;2.34;;;;;;;19.18;65.35;101621.16;;;;-60
2021/10/08 05:43:22;;;;;;;3.05;2.19;;;;;;;19.19;65.34;101625.64;;;;-61
2021/10/08 05:46:22;;;;;;;2.99;2.47;;;;;;;19.18;65.42;101623.44;;;;-60
2021/10/08 05:49:22;;;;;;;3.49;2.47;;;;;;;19.20;65.46;101628.44;;;;-55
2021/10/08 05:52:21;;;;;;;3.01;2.27;;;;;;;19.20;65.55;101630.40;;;;-55
2021/10/08 05:55:23;;;;;;;4.21;2.32;;;;;;;19.22;65.52;101627.44;;;;-56
2021/10/08 05:58:22;;;;;;;7.01;2.36;;;;;;;19.21;65.65;101627.72;;;;-56
2021/10/08 06:01:22;;;;;;;2.84;2.16;;;;;;;19.21;65.69;101633.09;;;;-60
2021/10/08 06:04:22;;;;;;;2.78;2.29;;;;;;;19.21;65.73;101632.60;;;;-49
2021/10/08 06:07:21;;;;;;;3.61;2.38;;;;;;;19.21;65.79;101632.11;;;;-49
2021/10/08 06:10:22;;;;;;;5.05;2.24;;;;;;;19.19;65.84;101634.09;;;;-51
2021/10/08 06:13:22;;;;;;;2.79;2.19;;;;;;;19.19;65.88;101632.31;;;;-51
2021/10/08 06:16:22;;;;;;;5.36;3.89;;;;;;;19.20;65.92;101633.23;;;;-62
2021/10/08 06:19:22;;;;;;;4.81;2.52;;;;;;;19.20;66.01;101641.52;;;;-60
2021/10/08 06:22:21;;;;;;;2.51;2.15;;;;;;;19.19;66.03;101639.21;;;;-56
2021/10/08 06:25:22;;;;;;;2.65;2.35;;;;;;;19.18;66.10;101642.13;;;;-51
2021/10/08 06:28:21;;;;;;;3.07;2.19;;;;;;;19.19;66.21;101644.50;;;;-51
2021/10/08 06:31:22;;;;;;;3.83;2.25;;;;;;;19.18;66.22;101642.78;;;;-51
2021/10/08 06:34:22;;;;;;;2.98;2.15;;;;;;;19.19;66.29;101646.45;;;;-50
2021/10/08 06:37:21;;;;;;;3.09;2.20;;;;;;;19.19;66.26;101641.25;;;;-49
2021/10/08 06:40:22;;;;;;;3.15;2.29;;;;;;;19.20;66.31;101645.75;;;;-49
2021/10/08 06:43:21;;;;;;;2.72;2.21;;;;;;;19.20;66.36;101654.37;;;;-49
2021/10/08 06:46:22;;;;;;;3.11;2.30;;;;;;;19.19;66.39;101650.42;;;;-61
2021/10/08 06:49:22;;;;;;;2.61;2.27;;;;;;;19.20;66.42;101656.23;;;;-60
2021/10/08 06:52:21;;;;;;;2.65;2.17;;;;;;;19.19;66.48;101652.86;;;;-61
2021/10/08 06:55:22;;;;;;;2.40;2.20;;;;;;;19.20;66.52;101657.21;;;;-51
2021/10/08 06:58:22;;;;;;;2.37;2.13;;;;;;;19.19;66.56;101653.02;;;;-51
2021/10/08 07:01:22;;;;;;;2.50;2.18;;;;;;;19.20;66.56;101653.88;;;;-51
2021/10/08 07:04:22;;;;;;;3.49;2.27;;;;;;;19.20;66.59;101647.37;;;;-51
2021/10/08 07:07:21;;;;;;;3.77;2.04;;;;;;;19.19;66.61;101654.33;;;;-49
2021/10/08 07:10:22;;;;;;;2.93;2.21;;;;;;;19.19;66.64;101653.11;;;;-51
2021/10/08 07:13:22;;;;;;;2.39;2.13;;;;;;;19.19;66.69;101651.08;;;;-51
2021/10/08 07:16:24;;;;;;;2.41;2.13;;;;;;;19.19;66.72;101650.83;;;;-51
2021/10/08 07:19:22;;;;;;;2.41;2.20;;;;;;;19.19;66.76;101649.70;;;;-61
2021/10/08 07:22:21;;;;;;;9.35;8.59;;;;;;;19.20;66.76;101647.21;;;;-60
2021/10/08 07:25:22;;;;;;;2.53;2.33;;;;;;;19.18;66.76;101640.42;;;;-51
2021/10/08 07:28:21;;;;;;;3.13;2.21;;;;;;;19.20;66.74;101636.81;;;;-51
2021/10/08 07:31:22;;;;;;;2.57;2.22;;;;;;;19.20;66.80;101639.66;;;;-61
2021/10/08 07:34:22;;;;;;;2.41;2.20;;;;;;;19.20;66.79;101644.70;;;;-55
2021/10/08 07:37:21;;;;;;;2.51;2.01;;;;;;;19.21;66.83;101644.70;;;;-56
2021/10/08 07:40:22;;;;;;;2.25;2.05;;;;;;;19.21;66.84;101644.95;;;;-56
2021/10/08 07:43:21;;;;;;;2.38;2.03;;;;;;;19.20;66.89;101645.03;;;;-56
2021/10/08 07:46:24;;;;;;;2.33;2.13;;;;;;;19.20;66.89;101648.36;;;;-55
2021/10/08 07:49:22;;;;;;;2.65;2.24;;;;;;;19.19;66.92;101645.95;;;;-55
2021/10/08 07:52:21;;;;;;;2.83;2.23;;;;;;;19.21;66.89;101645.77;;;;-54
2021/10/08 07:55:22;;;;;;;3.15;2.39;;;;;;;19.20;66.95;101654.77;;;;-56
2021/10/08 07:58:26;;;;;;;2.87;2.49;;;;;;;19.21;66.94;101654.46;;;;-54
2021/10/08 08:01:22;;;;;;;2.71;2.51;;;;;;;19.21;66.98;101653.89;;;;-56
2021/10/08 08:04:22;;;;;;;2.99;2.72;;;;;;;19.21;66.99;101658.28;;;;-56
2021/10/08 08:07:21;;;;;;;3.45;3.15;;;;;;;19.20;67.01;101660.22;;;;-56
2021/10/08 08:10:22;;;;;;;2.93;2.72;;;;;;;19.21;67.03;101656.09;;;;-51
2021/10/08 08:13:21;;;;;;;3.17;2.97;;;;;;;19.22;67.03;101655.16;;;;-61
2021/10/08 08:16:22;;;;;;;4.64;4.24;;;;;;;19.22;67.04;101659.05;;;;-61
2021/10/08 08:19:21;;;;;;;6.99;6.47;;;;;;;19.22;67.04;101654.34;;;;-51
2021/10/08 08:22:21;;;;;;;4.76;4.45;;;;;;;19.21;67.06;101654.95;;;;-55
2021/10/08 08:25:22;;;;;;;6.15;5.65;;;;;;;19.22;67.07;101658.16;;;;-54
2021/10/08 08:28:21;;;;;;;4.73;4.34;;;;;;;19.21;67.12;101660.80;;;;-61
2021/10/08 08:31:22;;;;;;;5.59;3.88;;;;;;;19.21;67.14;101663.73;;;;-60
2021/10/08 08:34:22;;;;;;;8.11;7.49;;;;;;;19.21;67.13;101662.91;;;;-60
2021/10/08 08:37:21;;;;;;;376.28;345.76;;;;;;;19.22;67.15;101665.08;;;;-61
2021/10/08 08:40:22;;;;;;;198.60;184.19;;;;;;;19.22;67.15;101655.72;;;;-51
2021/10/08 08:43:21;;;;;;;12.03;11.14;;;;;;;19.22;67.17;101662.14;;;;-60
2021/10/08 08:46:22;;;;;;;25.35;23.52;;;;;;;19.22;67.21;101660.69;;;;-60
2021/10/08 08:49:21;;;;;;;23.07;21.41;;;;;;;19.21;67.25;101656.65;;;;-61
2021/10/08 08:52:22;;;;;;;25.65;23.75;;;;;;;19.22;67.20;101655.64;;;;-59
2021/10/08 08:55:22;;;;;;;67.75;62.67;;;;;;;19.25;67.27;101651.48;;;;-50
2021/10/08 08:58:22;;;;;;;2.89;1.96;;;;;;;19.26;67.45;101650.59;;;;-50
2021/10/08 09:01:22;;;;;;;2.10;1.90;;;;;;;19.28;67.53;101644.59;;;;-61
2021/10/08 09:04:21;;;;;;;2.36;1.77;;;;;;;19.29;67.57;101636.55;;;;-50
2021/10/08 09:07:22;;;;;;;2.55;1.99;;;;;;;19.30;67.72;101633.15;;;;-51
2021/10/08 09:10:22;;;;;;;2.49;2.00;;;;;;;19.30;67.83;101634.64;;;;-51
2021/10/08 09:13:22;;;;;;;2.53;1.93;;;;;;;19.35;67.73;101637.92;;;;-58
2021/10/08 09:16:22;;;;;;;2.49;2.03;;;;;;;19.37;67.81;101634.89;;;;-56
2021/10/08 09:19:21;;;;;;;2.17;1.97;;;;;;;19.39;67.78;101634.13;;;;-58
2021/10/08 09:22:22;;;;;;;2.08;1.90;;;;;;;19.39;67.88;101628.28;;;;-56
2021/10/08 09:25:22;;;;;;;2.19;1.99;;;;;;;19.41;67.89;101624.67;;;;-54
2021/10/08 09:28:21;;;;;;;2.23;2.03;;;;;;;19.44;67.86;101622.21;;;;-51
2021/10/08 09:31:22;;;;;;;2.41;2.21;;;;;;;19.40;67.92;101620.36;;;;-58
2021/10/08 09:34:21;;;;;;;5.57;2.03;;;;;;;19.42;67.77;101616.63;;;;-51
2021/10/08 09:37:21;;;;;;;2.55;1.81;;;;;;;19.40;67.82;101611.41;;;;-51
2021/10/08 09:40:22;;;;;;;2.83;1.99;;;;;;;19.40;67.72;101608.65;;;;-52
2021/10/08 09:43:21;;;;;;;2.54;2.00;;;;;;;19.41;67.64;101606.79;;;;-58
2021/10/08 09:46:22;;;;;;;1.93;1.81;;;;;;;19.40;67.76;101601.22;;;;-58
2021/10/08 09:49:21;;;;;;;2.00;1.90;;;;;;;19.40;67.72;101600.16;;;;-52
2021/10/08 09:52:22;;;;;;;2.71;1.97;;;;;;;19.39;67.72;101596.34;;;;-52
2021/10/08 09:55:22;;;;;;;2.51;2.01;;;;;;;19.40;67.66;101600.57;;;;-51
2021/10/08 09:58:22;;;;;;;3.14;2.03;;;;;;;19.40;67.66;101601.83;;;;-51
2021/10/08 10:01:22;;;;;;;2.49;2.09;;;;;;;19.39;67.68;101600.97;;;;-51
2021/10/08 10:04:21;;;;;;;2.41;2.21;;;;;;;19.41;67.63;101598.58;;;;-58
2021/10/08 10:07:22;;;;;;;2.19;1.99;;;;;;;19.42;67.55;101601.10;;;;-56
2021/10/08 10:10:22;;;;;;;2.31;2.11;;;;;;;19.41;67.55;101600.70;;;;-58
2021/10/08 10:13:21;;;;;;;3.23;3.03;;;;;;;19.42;67.56;101599.15;;;;-59
2021/10/08 10:16:22;;;;;;;5.35;4.97;;;;;;;19.41;67.56;101601.50;;;;-58
2021/10/08 10:19:22;;;;;;;6.61;6.06;;;;;;;19.41;67.60;101598.50;;;;-51
2021/10/08 10:22:21;;;;;;;15.42;14.32;;;;;;;19.41;67.56;101592.72;;;;-52
2021/10/08 10:25:22;;;;;;;8.97;8.32;;;;;;;19.42;67.55;101597.20;;;;-52
2021/10/08 10:28:22;;;;;;;3.45;3.15;;;;;;;19.42;67.53;101593.87;;;;-52
2021/10/08 10:31:22;;;;;;;114.83;106.37;;;;;;;19.42;67.48;101595.73;;;;-52
2021/10/08 10:34:21;;;;;;;151.15;140.29;;;;;;;19.42;67.52;101600.38;;;;-51
2021/10/08 10:37:21;;;;;;;62.39;58.03;;;;;;;19.43;67.47;101601.55;;;;-52
2021/10/08 10:40:22;;;;;;;174.88;162.30;;;;;;;19.42;67.47;101601.43;;;;-51
2021/10/08 10:43:21;;;;;;;66.12;61.45;;;;;;;19.41;67.50;101598.42;;;;-51
2021/10/08 10:46:26;;;;;;;85.73;79.81;;;;;;;19.43;67.47;101601.95;;;;-52
2021/10/08 10:49:28;;;;;;;32.28;29.97;;;;;;;19.41;67.44;101602.48;;;;-52
2021/10/08 10:52:22;;;;;;;70.78;65.78;;;;;;;19.42;67.49;101599.97;;;;-51
2021/10/08 10:55:21;;;;;;;78.97;73.42;;;;;;;19.42;67.48;101599.56;;;;-52
2021/10/08 10:58:21;;;;;;;102.99;95.84;;;;;;;19.42;67.46;101604.84;;;;-52
2021/10/08 11:01:28;;;;;;;182.34;169.17;;;;;;;19.43;67.48;101598.78;;;;-52
2021/10/08 11:04:21;;;;;;;322.24;295.55;;;;;;;19.42;67.48;101593.79;;;;-51
2021/10/08 11:07:22;;;;;;;2.65;2.45;;;;;;;19.42;67.47;101587.89;;;;-52
2021/10/08 11:10:21;;;;;;;3.98;3.68;;;;;;;19.43;67.48;101589.27;;;;-52
2021/10/08 11:13:23;;;;;;;3.58;3.28;;;;;;;19.42;67.44;101588.70;;;;-51
2021/10/08 11:16:22;;;;;;;4.23;3.93;;;;;;;19.42;67.44;101588.50;;;;-51
2021/10/08 11:19:21;;;;;;;4.65;4.31;;;;;;;19.41;67.49;101583.70;;;;-58
2021/10/08 11:22:21;;;;;;;5.97;5.55;;;;;;;19.41;67.50;101580.53;;;;-58
2021/10/08 11:25:21;;;;;;;5.90;5.50;;;;;;;19.42;67.46;101579.92;;;;-58
2021/10/08 11:28:21;;;;;;;4.53;4.23;;;;;;;19.42;67.44;101576.72;;;;-59
2021/10/08 11:31:22;;;;;;;8.76;8.11;;;;;;;19.43;67.45;101576.68;;;;-60
2021/10/08 11:34:21;;;;;;;9.37;8.65;;;;;;;19.44;67.46;101573.34;;;;-60
2021/10/08 11:37:22;;;;;;;13.57;12.57;;;;;;;19.42;67.44;101569.19;;;;-60
2021/10/08 11:40:21;;;;;;;39.85;37.06;;;;;;;19.42;67.49;101565.41;;;;-59
2021/10/08 11:43:22;;;;;;;19.41;17.97;;;;;;;19.42;67.50;101560.86;;;;-51
2021/10/08 11:46:36;;;;;;;25.84;23.96;;;;;;;19.43;67.52;101558.38;;;;-52
2021/10/08 11:49:38;;;;;;;18.27;16.90;;;;;;;19.43;67.50;101557.25;;;;-58
2021/10/08 11:52:21;;;;;;;23.30;21.58;;;;;;;19.43;67.48;101555.05;;;;-60
2021/10/08 11:55:22;;;;;;;15.19;14.05;;;;;;;19.43;67.51;101551.47;;;;-51
2021/10/08 11:58:21;;;;;;;104.05;96.74;;;;;;;19.42;67.49;101547.45;;;;-51
2021/10/08 12:01:22;;;;;;;12.65;11.74;;;;;;;19.43;67.46;101549.37;;;;-51
2021/10/08 12:04:22;;;;;;;47.77;44.39;;;;;;;19.43;67.43;101544.98;;;;-51
2021/10/08 12:07:22;;;;;;;11.04;10.23;;;;;;;19.44;67.51;101546.61;;;;-51
2021/10/08 12:10:21;;;;;;;46.69;43.42;;;;;;;19.43;67.47;101539.04;;;;-51
2021/10/08 12:13:22;;;;;;;12.41;11.49;;;;;;;19.43;67.48;101534.16;;;;-60
2021/10/08 12:16:21;;;;;;;15.49;14.31;;;;;;;19.43;67.48;101535.63;;;;-59
2021/10/08 12:19:21;;;;;;;52.00;48.27;;;;;;;19.43;67.47;101532.29;;;;-59
2021/10/08 12:22:22;;;;;;;53.31;49.56;;;;;;;19.43;67.48;101531.39;;;;-58
2021/10/08 12:25:22;;;;;;;35.72;33.18;;;;;;;19.44;67.50;101528.80;;;;-57
2021/10/08 12:28:22;;;;;;;65.86;61.15;;;;;;;19.43;67.44;101529.77;;;;-56
2021/10/08 12:31:21;;;;;;;224.22;206.91;;;;;;;19.42;67.53;101529.19;;;;-50
2021/10/08 12:34:21;;;;;;;136.60;126.81;;;;;;;19.40;67.57;101528.55;;;;-52
2021/10/08 12:37:23;;;;;;;260.65;241.18;;;;;;;19.40;67.60;101529.59;;;;-51
2021/10/08 12:40:21;;;;;;;102.89;95.72;;;;;;;19.39;67.66;101524.55;;;;-51
2021/10/08 12:43:22;;;;;;;202.48;187.50;;;;;;;19.37;67.64;101518.90;;;;-51
2021/10/08 12:46:22;;;;;;;61.27;56.91;;;;;;;19.36;67.67;101518.64;;;;-51
2021/10/08 12:49:21;;;;;;;55.70;51.74;;;;;;;19.38;67.67;101516.87;;;;-58
2021/10/08 12:52:21;;;;;;;51.75;48.07;;;;;;;19.37;67.67;101513.77;;;;-57
2021/10/08 12:55:21;;;;;;;18.39;17.05;;;;;;;19.37;67.70;101514.42;;;;-58
2021/10/08 12:58:24;;;;;;;16.39;15.09;;;;;;;19.35;67.71;101510.48;;;;-58
2021/10/08 13:01:22;;;;;;;17.89;16.61;;;;;;;19.36;67.70;101511.33;;;;-58
2021/10/08 13:04:21;;;;;;;21.13;19.60;;;;;;;19.36;67.67;101511.49;;;;-60
2021/10/08 13:07:22;;;;;;;14.92;13.86;;;;;;;19.36;67.73;101515.92;;;;-59
2021/10/08 13:10:22;;;;;;;20.18;18.66;;;;;;;19.35;67.74;101518.84;;;;-59
2021/10/08 13:13:22;;;;;;;14.71;13.65;;;;;;;19.35;67.73;101517.55;;;;-60
2021/10/08 13:16:21;;;;;;;19.17;17.77;;;;;;;19.35;67.73;101517.14;;;;-60
2021/10/08 13:19:21;;;;;;;16.45;15.19;;;;;;;19.35;67.73;101517.78;;;;-59
2021/10/08 13:22:24;;;;;;;23.30;21.55;;;;;;;19.35;67.70;101515.84;;;;-59
2021/10/08 13:25:21;;;;;;;16.28;15.09;;;;;;;19.35;67.75;101512.02;;;;-59
2021/10/08 13:28:21;;;;;;;23.71;21.87;;;;;;;19.36;67.75;101507.59;;;;-57
2021/10/08 13:31:21;;;;;;;21.47;19.90;;;;;;;19.39;67.73;101509.19;;;;-61
2021/10/08 13:34:23;;;;;;;36.97;34.31;;;;;;;19.42;67.75;101506.97;;;;-52
2021/10/08 13:37:21;;;;;;;58.56;54.32;;;;;;;19.43;67.81;101505.30;;;;-52
2021/10/08 13:40:22;;;;;;;24.55;22.71;;;;;;;19.44;67.82;101503.68;;;;-52
2021/10/08 13:43:21;;;;;;;27.51;25.38;;;;;;;19.44;67.91;101496.77;;;;-50
2021/10/08 13:46:21;;;;;;;31.18;28.87;;;;;;;19.46;67.95;101496.77;;;;-51
2021/10/08 13:49:21;;;;;;;29.47;27.29;;;;;;;19.47;67.98;101496.53;;;;-50
2021/10/08 13:52:21;;;;;;;44.78;41.57;;;;;;;19.48;68.12;101496.70;;;;-51
2021/10/08 13:55:21;;;;;;;51.26;47.62;;;;;;;19.49;67.99;101493.49;;;;-51
2021/10/08 13:58:22;;;;;;;27.31;25.34;;;;;;;19.51;68.02;101489.14;;;;-52
2021/10/08 14:01:21;;;;;;;28.85;26.77;;;;;;;19.52;67.99;101491.84;;;;-55
2021/10/08 14:04:25;;;;;;;46.14;42.70;;;;;;;19.53;67.97;101488.38;;;;-55
2021/10/08 14:08:10;;;;;;;40.05;37.06;;;;;;;19.54;68.20;101481.97;;;;-50
2021/10/08 14:10:25;;;;;;;28.95;26.87;;;;;;;19.54;68.21;101479.61;;;;-58
2021/10/08 14:13:22;;;;;;;34.87;32.36;;;;;;;19.55;68.04;101478.51;;;;-57
2021/10/08 14:16:21;;;;;;;54.41;50.27;;;;;;;19.56;68.02;101474.77;;;;-56
2021/10/08 14:19:21;;;;;;;54.33;50.31;;;;;;;19.56;68.09;101473.06;;;;-54
2021/10/08 14:22:21;;;;;;;56.59;52.39;;;;;;;19.57;68.15;101473.75;;;;-53
2021/10/08 14:25:21;;;;;;;59.43;54.98;;;;;;;19.58;68.07;101471.48;;;;-54
2021/10/08 14:28:22;;;;;;;73.70;68.29;;;;;;;19.59;68.20;101469.21;;;;-56
2021/10/08 14:31:21;;;;;;;56.07;51.87;;;;;;;19.59;68.12;101467.13;;;;-51
2021/10/08 14:34:21;;;;;;;72.71;67.18;;;;;;;19.62;68.14;101465.14;;;;-58
2021/10/08 14:37:21;;;;;;;39.49;36.47;;;;;;;19.61;68.06;101465.59;;;;-57
2021/10/08 14:40:22;;;;;;;40.25;37.09;;;;;;;19.62;67.96;101462.38;;;;-51
2021/10/08 14:43:22;;;;;;;49.19;45.49;;;;;;;19.62;67.90;101460.52;;;;-50
2021/10/08 14:46:21;;;;;;;44.69;41.34;;;;;;;19.64;67.93;101458.20;;;;-50
2021/10/08 14:49:21;;;;;;;59.02;54.51;;;;;;;19.65;67.95;101455.28;;;;-59
2021/10/08 14:52:23;;;;;;;87.57;81.16;;;;;;;19.65;67.99;101449.45;;;;-49
2021/10/08 14:56:15;;;;;;;50.27;46.21;;;;;;;19.65;67.97;101446.20;;;;-50
2021/10/08 14:59:21;;;;;;;42.85;39.76;;;;;;;19.66;68.05;101441.81;;;;-49
2021/10/08 15:02:22;;;;;;;44.67;41.33;;;;;;;19.67;68.06;101439.66;;;;-54
2021/10/08 15:05:21;;;;;;;48.88;45.17;;;;;;;19.68;68.18;101441.30;;;;-56
2021/10/08 15:08:21;;;;;;;115.54;106.35;;;;;;;19.69;68.23;101441.49;;;;-50
2021/10/08 15:11:21;;;;;;;70.36;64.95;;;;;;;19.70;68.14;101439.02;;;;-49
2021/10/08 15:14:21;;;;;;;68.98;63.95;;;;;;;19.71;68.12;101438.04;;;;-59
2021/10/08 15:17:25;;;;;;;44.84;41.49;;;;;;;19.74;68.13;101434.78;;;;-51
2021/10/08 15:20:21;;;;;;;58.41;54.17;;;;;;;19.75;68.13;101435.19;;;;-51
2021/10/08 15:23:21;;;;;;;59.79;55.33;;;;;;;19.78;68.24;101435.52;;;;-51
2021/10/08 15:26:21;;;;;;;89.33;82.87;;;;;;;19.81;68.20;101434.02;;;;-54
2021/10/08 15:29:21;;;;;;;367.46;337.26;;;;;;;19.83;68.17;101430.00;;;;-59
2021/10/08 15:32:21;;;;;;;187.44;173.19;;;;;;;19.86;68.34;101431.30;;;;-53
2021/10/08 15:35:21;;;;;;;612.07;563.25;;;;;;;19.89;68.28;101425.48;;;;-49
2021/10/08 15:38:21;;;;;;;2.91;2.71;;;;;;;19.92;68.10;101421.86;;;;-51
2021/10/08 15:41:21;;;;;;;3.71;2.45;;;;;;;19.94;68.03;101419.06;;;;-50
2021/10/08 15:44:21;;;;;;;3.73;2.52;;;;;;;19.97;67.98;101420.19;;;;-50
2021/10/08 15:47:21;;;;;;;3.08;2.58;;;;;;;19.99;67.98;101420.72;;;;-50
2021/10/08 15:50:21;;;;;;;3.79;2.66;;;;;;;20.02;67.94;101422.80;;;;-59
2021/10/08 15:53:21;;;;;;;4.19;2.59;;;;;;;20.07;68.13;101424.79;;;;-52
2021/10/08 15:56:21;;;;;;;3.79;2.47;;;;;;;20.13;68.18;101427.48;;;;-51
2021/10/08 15:59:21;;;;;;;2.71;2.49;;;;;;;20.17;68.14;101424.55;;;;-51
2021/10/08 16:02:21;;;;;;;3.14;2.42;;;;;;;20.23;68.30;101426.20;;;;-50
2021/10/08 16:05:21;;;;;;;3.05;2.41;;;;;;;20.27;68.34;101425.31;;;;-52
2021/10/08 16:08:21;;;;;;;3.01;2.41;;;;;;;20.29;68.12;101428.60;;;;-59
2021/10/08 16:11:22;;;;;;;3.65;2.52;;;;;;;20.32;68.15;101428.27;;;;-61
2021/10/08 16:14:22;;;;;;;2.74;2.45;;;;;;;20.35;68.30;101431.16;;;;-54
2021/10/08 16:17:21;;;;;;;3.26;2.47;;;;;;;20.37;68.42;101438.03;;;;-57
2021/10/08 16:20:21;;;;;;;3.67;2.57;;;;;;;20.39;68.20;101435.70;;;;-56
2021/10/08 16:23:21;;;;;;;2.86;2.55;;;;;;;20.41;68.38;101440.80;;;;-57
2021/10/08 16:26:21;;;;;;;2.88;2.47;;;;;;;20.44;68.42;101441.44;;;;-60
2021/10/08 16:29:22;;;;;;;2.93;2.47;;;;;;;20.47;68.36;101444.98;;;;-59
2021/10/08 16:32:22;;;;;;;2.95;2.54;;;;;;;20.48;68.45;101447.42;;;;-60